sensor_id;sensor_type;location;lat;lon;timestamp;P1;durP1;ratioP1;P2;durP2;ratioP2
9208;SDS011;4639;48.862;9.188;2022-10-31T00:00:22;11.35;;;7.50;;
9208;SDS011;4639;48.862;9.188;2022-10-31T00:02:48;12.45;;;7.53;;
9208;SDS011;4639;48.862;9.188;2022-10-31T00:05:14;10.73;;;7.55;;
9208;SDS011;4639;48.862;9.188;2022-10-31T00:07:39;11.20;;;7.45;;
9208;SDS011;4639;48.862;9.188;2022-10-31T00:10:05;10.93;;;7.55;;
9208;SDS011;4639;48.862;9.188;2022-10-31T00:12:31;11.88;;;7.70;;
9208;SDS011;4639;48.862;9.188;2022-10-31T00:14:57;13.40;;;7.45;;
9208;SDS011;4639;48.862;9.188;2022-10-31T00:17:22;14.93;;;7.97;;
9208;SDS011;4639;48.862;9.188;2022-10-31T00:19:48;11.40;;;7.60;;
9208;SDS011;4639;48.862;9.188;2022-10-31T00:22:13;12.65;;;7.78;;
9208;SDS011;4639;48.862;9.188;2022-10-31T00:24:39;11.18;;;7.28;;
9208;SDS011;4639;48.862;9.188;2022-10-31T00:27:04;14.05;;;7.95;;
9208;SDS011;4639;48.862;9.188;2022-10-31T00:29:30;16.00;;;7.60;;
9208;SDS011;4639;48.862;9.188;2022-10-31T00:31:55;12.27;;;8.00;;
9208;SDS011;4639;48.862;9.188;2022-10-31T00:34:21;10.80;;;6.75;;
9208;SDS011;4639;48.862;9.188;2022-10-31T00:36:46;12.20;;;8.20;;
9208;SDS011;4639;48.862;9.188;2022-10-31T00:39:12;10.85;;;7.47;;
9208;SDS011;4639;48.862;9.188;2022-10-31T00:41:37;10.35;;;7.57;;
9208;SDS011;4639;48.862;9.188;2022-10-31T00:44:03;11.75;;;7.68;;
9208;SDS011;4639;48.862;9.188;2022-10-31T00:46:29;12.77;;;8.15;;
9208;SDS011;4639;48.862;9.188;2022-10-31T00:48:54;15.35;;;8.50;;
9208;SDS011;4639;48.862;9.188;2022-10-31T00:51:20;12.75;;;8.32;;
9208;SDS011;4639;48.862;9.188;2022-10-31T00:53:46;12.95;;;8.93;;
9208;SDS011;4639;48.862;9.188;2022-10-31T00:56:11;17.15;;;8.07;;
9208;SDS011;4639;48.862;9.188;2022-10-31T00:58:37;16.40;;;8.23;;
9208;SDS011;4639;48.862;9.188;2022-10-31T01:01:03;14.55;;;8.40;;
9208;SDS011;4639;48.862;9.188;2022-10-31T01:03:30;14.70;;;8.63;;
9208;SDS011;4639;48.862;9.188;2022-10-31T01:08:28;11.27;;;8.10;;
9208;SDS011;4639;48.862;9.188;2022-10-31T01:11:00;12.02;;;8.35;;
9208;SDS011;4639;48.862;9.188;2022-10-31T01:13:37;14.10;;;8.40;;
9208;SDS011;4639;48.862;9.188;2022-10-31T01:16:03;11.80;;;8.05;;
9208;SDS011;4639;48.862;9.188;2022-10-31T01:18:30;13.82;;;8.70;;
9208;SDS011;4639;48.862;9.188;2022-10-31T01:21:00;11.25;;;7.38;;
9208;SDS011;4639;48.862;9.188;2022-10-31T01:23:28;12.00;;;8.05;;
9208;SDS011;4639;48.862;9.188;2022-10-31T01:26:00;13.85;;;8.48;;
9208;SDS011;4639;48.862;9.188;2022-10-31T01:28:31;11.60;;;7.75;;
9208;SDS011;4639;48.862;9.188;2022-10-31T01:31:07;11.57;;;8.15;;
9208;SDS011;4639;48.862;9.188;2022-10-31T01:33:34;13.20;;;7.68;;
9208;SDS011;4639;48.862;9.188;2022-10-31T01:36:00;11.85;;;8.20;;
9208;SDS011;4639;48.862;9.188;2022-10-31T01:38:35;10.45;;;8.18;;
9208;SDS011;4639;48.862;9.188;2022-10-31T01:41:00;14.85;;;8.02;;
9208;SDS011;4639;48.862;9.188;2022-10-31T01:43:41;11.07;;;8.15;;
9208;SDS011;4639;48.862;9.188;2022-10-31T01:46:15;14.07;;;8.30;;
9208;SDS011;4639;48.862;9.188;2022-10-31T01:48:45;13.02;;;7.90;;
9208;SDS011;4639;48.862;9.188;2022-10-31T01:51:12;13.13;;;7.85;;
9208;SDS011;4639;48.862;9.188;2022-10-31T01:53:39;12.57;;;8.77;;
9208;SDS011;4639;48.862;9.188;2022-10-31T01:56:06;15.65;;;9.25;;
9208;SDS011;4639;48.862;9.188;2022-10-31T01:58:33;13.27;;;8.63;;
9208;SDS011;4639;48.862;9.188;2022-10-31T02:01:01;12.50;;;8.40;;
9208;SDS011;4639;48.862;9.188;2022-10-31T02:03:28;13.95;;;8.20;;
9208;SDS011;4639;48.862;9.188;2022-10-31T02:05:55;11.68;;;8.00;;
9208;SDS011;4639;48.862;9.188;2022-10-31T02:10:56;15.75;;;8.43;;
9208;SDS011;4639;48.862;9.188;2022-10-31T02:13:22;13.07;;;8.32;;
9208;SDS011;4639;48.862;9.188;2022-10-31T02:15:50;12.73;;;8.25;;
9208;SDS011;4639;48.862;9.188;2022-10-31T02:18:18;12.30;;;7.93;;
9208;SDS011;4639;48.862;9.188;2022-10-31T02:20:48;10.32;;;7.88;;
9208;SDS011;4639;48.862;9.188;2022-10-31T02:29:28;15.10;;;8.27;;
9208;SDS011;4639;48.862;9.188;2022-10-31T02:34:58;11.20;;;7.88;;
9208;SDS011;4639;48.862;9.188;2022-10-31T02:46:10;12.48;;;7.88;;
9208;SDS011;4639;48.862;9.188;2022-10-31T02:48:53;21.05;;;8.07;;
9208;SDS011;4639;48.862;9.188;2022-10-31T02:51:22;14.38;;;8.25;;
9208;SDS011;4639;48.862;9.188;2022-10-31T02:53:48;17.88;;;8.65;;
9208;SDS011;4639;48.862;9.188;2022-10-31T02:56:17;13.00;;;7.13;;
9208;SDS011;4639;48.862;9.188;2022-10-31T02:58:48;10.93;;;7.13;;
9208;SDS011;4639;48.862;9.188;2022-10-31T03:01:27;15.07;;;7.43;;
9208;SDS011;4639;48.862;9.188;2022-10-31T03:14:32;12.18;;;7.63;;
9208;SDS011;4639;48.862;9.188;2022-10-31T03:17:04;9.98;;;7.07;;
9208;SDS011;4639;48.862;9.188;2022-10-31T03:19:44;10.98;;;6.70;;
9208;SDS011;4639;48.862;9.188;2022-10-31T03:22:16;12.32;;;7.43;;
9208;SDS011;4639;48.862;9.188;2022-10-31T03:24:44;11.23;;;7.13;;
9208;SDS011;4639;48.862;9.188;2022-10-31T03:27:12;8.48;;;6.90;;
9208;SDS011;4639;48.862;9.188;2022-10-31T03:29:40;14.45;;;7.47;;
9208;SDS011;4639;48.862;9.188;2022-10-31T03:32:09;10.50;;;7.13;;
9208;SDS011;4639;48.862;9.188;2022-10-31T03:34:47;11.63;;;7.35;;
9208;SDS011;4639;48.862;9.188;2022-10-31T03:37:15;12.63;;;6.97;;
9208;SDS011;4639;48.862;9.188;2022-10-31T03:39:43;14.13;;;6.85;;
9208;SDS011;4639;48.862;9.188;2022-10-31T03:42:11;10.73;;;6.80;;
9208;SDS011;4639;48.862;9.188;2022-10-31T03:44:44;11.80;;;7.38;;
9208;SDS011;4639;48.862;9.188;2022-10-31T03:47:14;13.43;;;7.97;;
9208;SDS011;4639;48.862;9.188;2022-10-31T03:49:40;15.13;;;7.55;;
9208;SDS011;4639;48.862;9.188;2022-10-31T03:55:40;13.45;;;7.25;;
9208;SDS011;4639;48.862;9.188;2022-10-31T04:00:32;12.25;;;7.60;;
9208;SDS011;4639;48.862;9.188;2022-10-31T04:03:05;11.57;;;7.78;;
9208;SDS011;4639;48.862;9.188;2022-10-31T04:05:34;11.00;;;7.40;;
9208;SDS011;4639;48.862;9.188;2022-10-31T04:08:02;11.68;;;6.40;;
9208;SDS011;4639;48.862;9.188;2022-10-31T04:10:33;15.00;;;7.53;;
9208;SDS011;4639;48.862;9.188;2022-10-31T04:13:03;11.50;;;7.20;;
9208;SDS011;4639;48.862;9.188;2022-10-31T04:15:36;11.32;;;7.63;;
9208;SDS011;4639;48.862;9.188;2022-10-31T04:18:03;13.35;;;8.00;;
9208;SDS011;4639;48.862;9.188;2022-10-31T04:20:33;11.77;;;7.90;;
9208;SDS011;4639;48.862;9.188;2022-10-31T04:23:04;12.02;;;7.72;;
9208;SDS011;4639;48.862;9.188;2022-10-31T04:25:35;11.77;;;8.05;;
9208;SDS011;4639;48.862;9.188;2022-10-31T04:28:01;12.73;;;7.78;;
9208;SDS011;4639;48.862;9.188;2022-10-31T04:30:26;12.57;;;8.02;;
9208;SDS011;4639;48.862;9.188;2022-10-31T04:32:52;10.80;;;8.20;;
9208;SDS011;4639;48.862;9.188;2022-10-31T04:35:17;10.88;;;7.57;;
9208;SDS011;4639;48.862;9.188;2022-10-31T04:37:43;13.52;;;7.95;;
9208;SDS011;4639;48.862;9.188;2022-10-31T04:40:09;11.85;;;7.68;;
9208;SDS011;4639;48.862;9.188;2022-10-31T04:42:35;12.25;;;7.78;;
9208;SDS011;4639;48.862;9.188;2022-10-31T04:45:01;15.35;;;7.75;;
9208;SDS011;4639;48.862;9.188;2022-10-31T04:47:27;16.08;;;8.70;;
9208;SDS011;4639;48.862;9.188;2022-10-31T04:49:55;14.80;;;8.05;;
9208;SDS011;4639;48.862;9.188;2022-10-31T04:52:20;11.27;;;7.30;;
9208;SDS011;4639;48.862;9.188;2022-10-31T04:54:46;14.20;;;8.40;;
9208;SDS011;4639;48.862;9.188;2022-10-31T04:57:11;15.45;;;7.82;;
9208;SDS011;4639;48.862;9.188;2022-10-31T04:59:37;14.90;;;7.22;;
9208;SDS011;4639;48.862;9.188;2022-10-31T05:02:02;13.05;;;7.30;;
9208;SDS011;4639;48.862;9.188;2022-10-31T05:04:28;15.85;;;7.38;;
9208;SDS011;4639;48.862;9.188;2022-10-31T05:06:53;12.25;;;7.93;;
9208;SDS011;4639;48.862;9.188;2022-10-31T05:09:19;13.82;;;7.45;;
9208;SDS011;4639;48.862;9.188;2022-10-31T05:11:44;13.98;;;7.90;;
9208;SDS011;4639;48.862;9.188;2022-10-31T05:14:10;12.10;;;7.32;;
9208;SDS011;4639;48.862;9.188;2022-10-31T05:16:35;11.50;;;6.88;;
9208;SDS011;4639;48.862;9.188;2022-10-31T05:19:01;10.25;;;6.78;;
9208;SDS011;4639;48.862;9.188;2022-10-31T05:21:27;14.07;;;7.95;;
9208;SDS011;4639;48.862;9.188;2022-10-31T05:23:52;12.82;;;7.35;;
9208;SDS011;4639;48.862;9.188;2022-10-31T05:26:18;15.60;;;7.55;;
9208;SDS011;4639;48.862;9.188;2022-10-31T05:28:43;13.27;;;7.78;;
9208;SDS011;4639;48.862;9.188;2022-10-31T05:31:09;14.55;;;7.57;;
9208;SDS011;4639;48.862;9.188;2022-10-31T05:33:34;12.63;;;7.88;;
9208;SDS011;4639;48.862;9.188;2022-10-31T05:36:00;13.90;;;7.65;;
9208;SDS011;4639;48.862;9.188;2022-10-31T05:38:25;13.90;;;7.65;;
9208;SDS011;4639;48.862;9.188;2022-10-31T05:40:54;11.27;;;7.03;;
9208;SDS011;4639;48.862;9.188;2022-10-31T05:43:26;11.73;;;7.22;;
9208;SDS011;4639;48.862;9.188;2022-10-31T05:45:52;15.93;;;7.70;;
9208;SDS011;4639;48.862;9.188;2022-10-31T05:48:18;14.93;;;8.32;;
9208;SDS011;4639;48.862;9.188;2022-10-31T05:50:44;14.60;;;7.63;;
9208;SDS011;4639;48.862;9.188;2022-10-31T05:53:10;11.75;;;7.78;;
9208;SDS011;4639;48.862;9.188;2022-10-31T05:55:35;12.82;;;7.57;;
9208;SDS011;4639;48.862;9.188;2022-10-31T05:58:01;13.20;;;7.70;;
9208;SDS011;4639;48.862;9.188;2022-10-31T06:00:27;11.70;;;7.47;;
9208;SDS011;4639;48.862;9.188;2022-10-31T06:02:59;14.50;;;7.57;;
9208;SDS011;4639;48.862;9.188;2022-10-31T06:05:27;9.40;;;6.63;;
9208;SDS011;4639;48.862;9.188;2022-10-31T06:07:53;12.35;;;7.68;;
9208;SDS011;4639;48.862;9.188;2022-10-31T06:10:19;12.85;;;6.97;;
9208;SDS011;4639;48.862;9.188;2022-10-31T06:12:45;12.68;;;7.15;;
9208;SDS011;4639;48.862;9.188;2022-10-31T06:15:11;13.52;;;7.22;;
9208;SDS011;4639;48.862;9.188;2022-10-31T06:17:37;13.20;;;7.10;;
9208;SDS011;4639;48.862;9.188;2022-10-31T06:20:03;14.23;;;6.82;;
9208;SDS011;4639;48.862;9.188;2022-10-31T06:22:29;10.15;;;7.07;;
9208;SDS011;4639;48.862;9.188;2022-10-31T06:24:55;11.10;;;7.18;;
9208;SDS011;4639;48.862;9.188;2022-10-31T06:27:21;14.77;;;7.30;;
9208;SDS011;4639;48.862;9.188;2022-10-31T06:29:47;12.18;;;6.95;;
9208;SDS011;4639;48.862;9.188;2022-10-31T06:32:12;9.00;;;6.38;;
9208;SDS011;4639;48.862;9.188;2022-10-31T06:34:39;18.88;;;7.47;;
9208;SDS011;4639;48.862;9.188;2022-10-31T06:37:05;13.95;;;6.80;;
9208;SDS011;4639;48.862;9.188;2022-10-31T06:39:32;10.02;;;6.57;;
9208;SDS011;4639;48.862;9.188;2022-10-31T06:41:57;10.35;;;6.65;;
9208;SDS011;4639;48.862;9.188;2022-10-31T06:44:23;11.13;;;6.75;;
9208;SDS011;4639;48.862;9.188;2022-10-31T06:46:48;11.00;;;6.60;;
9208;SDS011;4639;48.862;9.188;2022-10-31T06:49:14;10.50;;;6.97;;
9208;SDS011;4639;48.862;9.188;2022-10-31T06:51:40;15.98;;;7.68;;
9208;SDS011;4639;48.862;9.188;2022-10-31T06:54:06;13.40;;;6.72;;
9208;SDS011;4639;48.862;9.188;2022-10-31T06:56:31;17.95;;;6.68;;
9208;SDS011;4639;48.862;9.188;2022-10-31T06:58:57;13.50;;;6.85;;
9208;SDS011;4639;48.862;9.188;2022-10-31T07:01:22;13.02;;;6.70;;
9208;SDS011;4639;48.862;9.188;2022-10-31T07:03:48;11.95;;;7.63;;
9208;SDS011;4639;48.862;9.188;2022-10-31T07:06:13;13.25;;;6.88;;
9208;SDS011;4639;48.862;9.188;2022-10-31T07:08:39;10.55;;;6.60;;
9208;SDS011;4639;48.862;9.188;2022-10-31T07:11:04;9.77;;;6.90;;
9208;SDS011;4639;48.862;9.188;2022-10-31T07:13:30;14.70;;;6.53;;
9208;SDS011;4639;48.862;9.188;2022-10-31T07:15:59;10.77;;;6.45;;
9208;SDS011;4639;48.862;9.188;2022-10-31T07:18:26;11.45;;;6.53;;
9208;SDS011;4639;48.862;9.188;2022-10-31T07:20:52;8.68;;;5.85;;
9208;SDS011;4639;48.862;9.188;2022-10-31T07:23:18;11.13;;;6.00;;
9208;SDS011;4639;48.862;9.188;2022-10-31T07:25:44;13.13;;;6.00;;
9208;SDS011;4639;48.862;9.188;2022-10-31T07:28:10;11.02;;;5.85;;
9208;SDS011;4639;48.862;9.188;2022-10-31T07:30:36;14.05;;;6.43;;
9208;SDS011;4639;48.862;9.188;2022-10-31T07:33:02;8.98;;;6.10;;
9208;SDS011;4639;48.862;9.188;2022-10-31T07:35:29;11.05;;;7.05;;
9208;SDS011;4639;48.862;9.188;2022-10-31T07:37:55;12.10;;;6.70;;
9208;SDS011;4639;48.862;9.188;2022-10-31T07:40:21;13.40;;;6.53;;
9208;SDS011;4639;48.862;9.188;2022-10-31T07:42:51;11.32;;;6.35;;
9208;SDS011;4639;48.862;9.188;2022-10-31T07:45:18;11.32;;;6.53;;
9208;SDS011;4639;48.862;9.188;2022-10-31T07:47:46;13.18;;;5.85;;
9208;SDS011;4639;48.862;9.188;2022-10-31T07:50:16;10.55;;;6.30;;
9208;SDS011;4639;48.862;9.188;2022-10-31T07:52:43;12.82;;;6.60;;
9208;SDS011;4639;48.862;9.188;2022-10-31T07:55:10;13.40;;;6.95;;
9208;SDS011;4639;48.862;9.188;2022-10-31T07:57:36;13.93;;;6.43;;
9208;SDS011;4639;48.862;9.188;2022-10-31T08:00:03;12.35;;;5.95;;
9208;SDS011;4639;48.862;9.188;2022-10-31T08:02:33;10.38;;;5.70;;
9208;SDS011;4639;48.862;9.188;2022-10-31T08:04:58;14.77;;;6.18;;
9208;SDS011;4639;48.862;9.188;2022-10-31T08:07:25;9.35;;;5.50;;
9208;SDS011;4639;48.862;9.188;2022-10-31T08:09:51;13.15;;;6.45;;
9208;SDS011;4639;48.862;9.188;2022-10-31T08:12:17;12.80;;;5.55;;
9208;SDS011;4639;48.862;9.188;2022-10-31T08:14:42;10.30;;;5.70;;
9208;SDS011;4639;48.862;9.188;2022-10-31T08:17:09;12.75;;;6.07;;
9208;SDS011;4639;48.862;9.188;2022-10-31T08:19:34;13.13;;;6.15;;
9208;SDS011;4639;48.862;9.188;2022-10-31T08:22:00;12.48;;;6.45;;
9208;SDS011;4639;48.862;9.188;2022-10-31T08:24:25;8.45;;;5.63;;
9208;SDS011;4639;48.862;9.188;2022-10-31T08:26:51;15.63;;;7.18;;
9208;SDS011;4639;48.862;9.188;2022-10-31T08:29:17;12.27;;;6.07;;
9208;SDS011;4639;48.862;9.188;2022-10-31T08:31:42;13.63;;;6.10;;
9208;SDS011;4639;48.862;9.188;2022-10-31T08:34:08;9.05;;;6.10;;
9208;SDS011;4639;48.862;9.188;2022-10-31T08:36:34;14.50;;;6.40;;
9208;SDS011;4639;48.862;9.188;2022-10-31T08:38:59;9.27;;;5.35;;
9208;SDS011;4639;48.862;9.188;2022-10-31T08:41:25;11.38;;;5.82;;
9208;SDS011;4639;48.862;9.188;2022-10-31T08:43:51;11.40;;;5.97;;
9208;SDS011;4639;48.862;9.188;2022-10-31T08:46:16;16.33;;;6.28;;
9208;SDS011;4639;48.862;9.188;2022-10-31T08:48:42;13.20;;;5.65;;
9208;SDS011;4639;48.862;9.188;2022-10-31T08:51:08;13.38;;;5.97;;
9208;SDS011;4639;48.862;9.188;2022-10-31T08:53:35;15.23;;;5.88;;
9208;SDS011;4639;48.862;9.188;2022-10-31T08:56:00;10.40;;;6.03;;
9208;SDS011;4639;48.862;9.188;2022-10-31T08:58:26;12.63;;;5.93;;
9208;SDS011;4639;48.862;9.188;2022-10-31T09:00:52;16.25;;;6.55;;
9208;SDS011;4639;48.862;9.188;2022-10-31T09:03:23;13.15;;;5.88;;
9208;SDS011;4639;48.862;9.188;2022-10-31T09:05:49;8.30;;;5.53;;
9208;SDS011;4639;48.862;9.188;2022-10-31T09:08:19;9.43;;;6.32;;
9208;SDS011;4639;48.862;9.188;2022-10-31T09:10:44;17.90;;;6.18;;
9208;SDS011;4639;48.862;9.188;2022-10-31T09:13:14;10.20;;;5.85;;
9208;SDS011;4639;48.862;9.188;2022-10-31T09:15:46;11.05;;;6.05;;
9208;SDS011;4639;48.862;9.188;2022-10-31T09:18:13;9.98;;;6.18;;
9208;SDS011;4639;48.862;9.188;2022-10-31T09:20:40;16.20;;;6.60;;
9208;SDS011;4639;48.862;9.188;2022-10-31T09:23:25;10.48;;;5.57;;
9208;SDS011;4639;48.862;9.188;2022-10-31T09:25:51;16.80;;;6.25;;
9208;SDS011;4639;48.862;9.188;2022-10-31T09:28:22;15.18;;;6.22;;
9208;SDS011;4639;48.862;9.188;2022-10-31T09:30:49;13.02;;;6.30;;
9208;SDS011;4639;48.862;9.188;2022-10-31T09:33:16;9.82;;;5.65;;
9208;SDS011;4639;48.862;9.188;2022-10-31T09:35:42;12.88;;;5.72;;
9208;SDS011;4639;48.862;9.188;2022-10-31T09:38:17;15.68;;;6.22;;
9208;SDS011;4639;48.862;9.188;2022-10-31T09:40:48;11.60;;;5.85;;
9208;SDS011;4639;48.862;9.188;2022-10-31T09:49:12;15.45;;;6.35;;
9208;SDS011;4639;48.862;9.188;2022-10-31T09:51:42;14.57;;;6.63;;
9208;SDS011;4639;48.862;9.188;2022-10-31T09:54:14;11.00;;;5.97;;
9208;SDS011;4639;48.862;9.188;2022-10-31T09:56:45;11.65;;;6.15;;
9208;SDS011;4639;48.862;9.188;2022-10-31T09:59:12;21.00;;;6.75;;
9208;SDS011;4639;48.862;9.188;2022-10-31T10:01:50;11.55;;;5.80;;
9208;SDS011;4639;48.862;9.188;2022-10-31T10:04:31;16.42;;;6.70;;
9208;SDS011;4639;48.862;9.188;2022-10-31T10:07:35;16.92;;;6.50;;
9208;SDS011;4639;48.862;9.188;2022-10-31T10:10:51;13.90;;;6.22;;
9208;SDS011;4639;48.862;9.188;2022-10-31T10:13:42;16.92;;;6.30;;
9208;SDS011;4639;48.862;9.188;2022-10-31T10:27:23;11.30;;;6.38;;
9208;SDS011;4639;48.862;9.188;2022-10-31T10:30:17;15.70;;;6.78;;
9208;SDS011;4639;48.862;9.188;2022-10-31T10:32:59;13.20;;;6.20;;
9208;SDS011;4639;48.862;9.188;2022-10-31T10:35:33;10.02;;;6.07;;
9208;SDS011;4639;48.862;9.188;2022-10-31T10:40:53;12.60;;;5.88;;
9208;SDS011;4639;48.862;9.188;2022-10-31T10:43:23;10.88;;;6.22;;
9208;SDS011;4639;48.862;9.188;2022-10-31T10:49:17;9.82;;;5.40;;
9208;SDS011;4639;48.862;9.188;2022-10-31T10:51:57;12.55;;;6.45;;
9208;SDS011;4639;48.862;9.188;2022-10-31T11:00:22;11.57;;;5.57;;
9208;SDS011;4639;48.862;9.188;2022-10-31T11:02:48;11.30;;;6.10;;
9208;SDS011;4639;48.862;9.188;2022-10-31T11:05:20;13.52;;;6.10;;
9208;SDS011;4639;48.862;9.188;2022-10-31T11:08:07;11.13;;;5.85;;
9208;SDS011;4639;48.862;9.188;2022-10-31T11:10:33;9.88;;;5.75;;
9208;SDS011;4639;48.862;9.188;2022-10-31T11:13:01;13.93;;;6.32;;
9208;SDS011;4639;48.862;9.188;2022-10-31T11:15:49;11.70;;;5.35;;
9208;SDS011;4639;48.862;9.188;2022-10-31T11:18:22;13.48;;;5.88;;
9208;SDS011;4639;48.862;9.188;2022-10-31T11:20:53;9.00;;;5.80;;
9208;SDS011;4639;48.862;9.188;2022-10-31T11:23:22;10.35;;;5.90;;
9208;SDS011;4639;48.862;9.188;2022-10-31T11:25:59;11.30;;;5.90;;
9208;SDS011;4639;48.862;9.188;2022-10-31T11:28:28;12.27;;;6.13;;
9208;SDS011;4639;48.862;9.188;2022-10-31T11:30:57;13.43;;;5.78;;
9208;SDS011;4639;48.862;9.188;2022-10-31T11:33:31;14.30;;;6.10;;
9208;SDS011;4639;48.862;9.188;2022-10-31T11:36:03;14.02;;;6.20;;
9208;SDS011;4639;48.862;9.188;2022-10-31T11:38:45;16.33;;;6.03;;
9208;SDS011;4639;48.862;9.188;2022-10-31T11:41:12;16.60;;;5.78;;
9208;SDS011;4639;48.862;9.188;2022-10-31T11:43:45;13.98;;;5.30;;
9208;SDS011;4639;48.862;9.188;2022-10-31T11:46:17;13.13;;;5.78;;
9208;SDS011;4639;48.862;9.188;2022-10-31T11:48:47;11.48;;;6.00;;
9208;SDS011;4639;48.862;9.188;2022-10-31T11:51:23;10.52;;;5.75;;
9208;SDS011;4639;48.862;9.188;2022-10-31T11:53:51;10.80;;;5.70;;
9208;SDS011;4639;48.862;9.188;2022-10-31T11:56:19;12.15;;;5.68;;
9208;SDS011;4639;48.862;9.188;2022-10-31T11:59:00;12.40;;;5.78;;
9208;SDS011;4639;48.862;9.188;2022-10-31T12:01:28;11.07;;;5.40;;
9208;SDS011;4639;48.862;9.188;2022-10-31T12:04:00;12.35;;;6.22;;
9208;SDS011;4639;48.862;9.188;2022-10-31T12:06:36;14.98;;;5.65;;
9208;SDS011;4639;48.862;9.188;2022-10-31T12:09:16;12.13;;;5.15;;
9208;SDS011;4639;48.862;9.188;2022-10-31T12:14:44;11.73;;;5.97;;
9208;SDS011;4639;48.862;9.188;2022-10-31T12:17:25;12.95;;;5.72;;
9208;SDS011;4639;48.862;9.188;2022-10-31T12:20:06;9.93;;;5.57;;
9208;SDS011;4639;48.862;9.188;2022-10-31T12:31:29;11.65;;;5.82;;
9208;SDS011;4639;48.862;9.188;2022-10-31T12:37:19;16.88;;;6.00;;
9208;SDS011;4639;48.862;9.188;2022-10-31T12:54:01;11.20;;;5.43;;
9208;SDS011;4639;48.862;9.188;2022-10-31T12:57:09;18.67;;;5.72;;
9208;SDS011;4639;48.862;9.188;2022-10-31T12:59:51;19.80;;;5.18;;
9208;SDS011;4639;48.862;9.188;2022-10-31T13:10:25;9.48;;;4.90;;
9208;SDS011;4639;48.862;9.188;2022-10-31T13:13:05;13.05;;;5.30;;
9208;SDS011;4639;48.862;9.188;2022-10-31T13:15:46;11.27;;;4.47;;
9208;SDS011;4639;48.862;9.188;2022-10-31T13:18:22;11.15;;;5.22;;
9208;SDS011;4639;48.862;9.188;2022-10-31T13:21:16;10.60;;;4.72;;
9208;SDS011;4639;48.862;9.188;2022-10-31T13:23:47;11.52;;;4.90;;
9208;SDS011;4639;48.862;9.188;2022-10-31T13:26:18;7.57;;;4.90;;
9208;SDS011;4639;48.862;9.188;2022-10-31T13:31:22;10.85;;;5.68;;
9208;SDS011;4639;48.862;9.188;2022-10-31T13:33:54;13.27;;;6.53;;
9208;SDS011;4639;48.862;9.188;2022-10-31T13:36:32;12.52;;;6.70;;
9208;SDS011;4639;48.862;9.188;2022-10-31T13:44:26;10.27;;;5.82;;
9208;SDS011;4639;48.862;9.188;2022-10-31T13:46:53;10.32;;;5.20;;
9208;SDS011;4639;48.862;9.188;2022-10-31T13:54:36;9.50;;;4.97;;
9208;SDS011;4639;48.862;9.188;2022-10-31T13:57:07;10.57;;;4.68;;
9208;SDS011;4639;48.862;9.188;2022-10-31T14:00:01;11.40;;;5.05;;
9208;SDS011;4639;48.862;9.188;2022-10-31T14:02:33;9.80;;;5.07;;
9208;SDS011;4639;48.862;9.188;2022-10-31T14:05:02;8.93;;;5.10;;
9208;SDS011;4639;48.862;9.188;2022-10-31T14:07:31;7.32;;;5.22;;
9208;SDS011;4639;48.862;9.188;2022-10-31T14:10:05;13.10;;;5.40;;
9208;SDS011;4639;48.862;9.188;2022-10-31T14:12:45;9.52;;;5.15;;
9208;SDS011;4639;48.862;9.188;2022-10-31T14:15:22;14.15;;;5.28;;
9208;SDS011;4639;48.862;9.188;2022-10-31T14:17:51;18.13;;;5.43;;
9208;SDS011;4639;48.862;9.188;2022-10-31T14:20:22;10.45;;;4.93;;
9208;SDS011;4639;48.862;9.188;2022-10-31T14:22:57;11.77;;;5.25;;
9208;SDS011;4639;48.862;9.188;2022-10-31T14:25:30;13.50;;;5.88;;
9208;SDS011;4639;48.862;9.188;2022-10-31T14:27:58;14.57;;;5.72;;
9208;SDS011;4639;48.862;9.188;2022-10-31T14:30:27;15.52;;;5.60;;
9208;SDS011;4639;48.862;9.188;2022-10-31T14:32:58;9.98;;;5.60;;
9208;SDS011;4639;48.862;9.188;2022-10-31T14:35:37;14.02;;;5.68;;
9208;SDS011;4639;48.862;9.188;2022-10-31T14:38:25;13.63;;;6.00;;
9208;SDS011;4639;48.862;9.188;2022-10-31T14:43:50;14.10;;;5.55;;
9208;SDS011;4639;48.862;9.188;2022-10-31T14:52:20;12.55;;;5.90;;
9208;SDS011;4639;48.862;9.188;2022-10-31T14:54:48;10.95;;;6.15;;
9208;SDS011;4639;48.862;9.188;2022-10-31T14:59:52;15.90;;;6.38;;
9208;SDS011;4639;48.862;9.188;2022-10-31T15:02:30;11.55;;;6.05;;
9208;SDS011;4639;48.862;9.188;2022-10-31T15:05:08;11.00;;;5.90;;
9208;SDS011;4639;48.862;9.188;2022-10-31T15:07:35;15.65;;;6.13;;
9208;SDS011;4639;48.862;9.188;2022-10-31T15:10:05;13.48;;;6.13;;
9208;SDS011;4639;48.862;9.188;2022-10-31T15:12:44;12.10;;;5.40;;
9208;SDS011;4639;48.862;9.188;2022-10-31T15:15:27;12.38;;;6.18;;
9208;SDS011;4639;48.862;9.188;2022-10-31T15:17:59;13.63;;;5.68;;
9208;SDS011;4639;48.862;9.188;2022-10-31T15:20:28;13.32;;;5.15;;
9208;SDS011;4639;48.862;9.188;2022-10-31T15:22:58;10.57;;;7.00;;
9208;SDS011;4639;48.862;9.188;2022-10-31T15:25:25;17.02;;;6.95;;
9208;SDS011;4639;48.862;9.188;2022-10-31T15:27:53;14.32;;;6.30;;
9208;SDS011;4639;48.862;9.188;2022-10-31T15:30:23;13.70;;;7.18;;
9208;SDS011;4639;48.862;9.188;2022-10-31T15:32:50;13.30;;;6.13;;
9208;SDS011;4639;48.862;9.188;2022-10-31T15:35:23;15.18;;;6.47;;
9208;SDS011;4639;48.862;9.188;2022-10-31T15:37:52;13.02;;;6.28;;
9208;SDS011;4639;48.862;9.188;2022-10-31T15:40:19;11.45;;;5.90;;
9208;SDS011;4639;48.862;9.188;2022-10-31T15:42:57;14.73;;;7.20;;
9208;SDS011;4639;48.862;9.188;2022-10-31T15:45:27;16.33;;;6.63;;
9208;SDS011;4639;48.862;9.188;2022-10-31T15:48:02;13.40;;;6.57;;
9208;SDS011;4639;48.862;9.188;2022-10-31T15:50:38;16.40;;;6.70;;
9208;SDS011;4639;48.862;9.188;2022-10-31T15:53:11;16.10;;;6.65;;
9208;SDS011;4639;48.862;9.188;2022-10-31T15:56:00;13.60;;;7.50;;
9208;SDS011;4639;48.862;9.188;2022-10-31T15:58:29;14.57;;;7.18;;
9208;SDS011;4639;48.862;9.188;2022-10-31T16:01:18;12.73;;;6.90;;
9208;SDS011;4639;48.862;9.188;2022-10-31T16:03:56;14.68;;;6.97;;
9208;SDS011;4639;48.862;9.188;2022-10-31T16:06:23;16.52;;;6.43;;
9208;SDS011;4639;48.862;9.188;2022-10-31T16:08:49;10.05;;;6.68;;
9208;SDS011;4639;48.862;9.188;2022-10-31T16:11:23;14.40;;;7.47;;
9208;SDS011;4639;48.862;9.188;2022-10-31T16:14:02;14.38;;;6.72;;
9208;SDS011;4639;48.862;9.188;2022-10-31T16:16:40;17.73;;;8.10;;
9208;SDS011;4639;48.862;9.188;2022-10-31T16:19:14;22.33;;;8.27;;
9208;SDS011;4639;48.862;9.188;2022-10-31T16:22:02;16.40;;;7.80;;
9208;SDS011;4639;48.862;9.188;2022-10-31T16:24:38;16.05;;;7.95;;
9208;SDS011;4639;48.862;9.188;2022-10-31T16:27:25;12.77;;;8.52;;
9208;SDS011;4639;48.862;9.188;2022-10-31T16:29:56;17.13;;;7.72;;
9208;SDS011;4639;48.862;9.188;2022-10-31T16:35:17;18.20;;;9.85;;
9208;SDS011;4639;48.862;9.188;2022-10-31T16:37:48;25.90;;;10.00;;
9208;SDS011;4639;48.862;9.188;2022-10-31T16:40:14;19.08;;;11.45;;
9208;SDS011;4639;48.862;9.188;2022-10-31T16:42:43;22.00;;;11.75;;
9208;SDS011;4639;48.862;9.188;2022-10-31T16:45:14;21.55;;;11.40;;
9208;SDS011;4639;48.862;9.188;2022-10-31T16:47:48;14.07;;;10.02;;
9208;SDS011;4639;48.862;9.188;2022-10-31T16:50:24;16.45;;;10.30;;
9208;SDS011;4639;48.862;9.188;2022-10-31T16:52:51;25.83;;;11.65;;
9208;SDS011;4639;48.862;9.188;2022-10-31T16:55:17;21.52;;;10.13;;
9208;SDS011;4639;48.862;9.188;2022-10-31T16:57:55;19.15;;;10.07;;
9208;SDS011;4639;48.862;9.188;2022-10-31T17:00:22;29.02;;;13.00;;
9208;SDS011;4639;48.862;9.188;2022-10-31T17:02:51;18.67;;;10.63;;
9208;SDS011;4639;48.862;9.188;2022-10-31T17:05:18;17.85;;;10.48;;
9208;SDS011;4639;48.862;9.188;2022-10-31T17:07:45;17.55;;;10.57;;
9208;SDS011;4639;48.862;9.188;2022-10-31T17:10:12;18.88;;;12.50;;
9208;SDS011;4639;48.862;9.188;2022-10-31T17:12:40;20.70;;;14.80;;
9208;SDS011;4639;48.862;9.188;2022-10-31T17:15:19;23.92;;;11.13;;
9208;SDS011;4639;48.862;9.188;2022-10-31T17:17:49;16.58;;;10.32;;
9208;SDS011;4639;48.862;9.188;2022-10-31T17:20:22;17.23;;;10.30;;
9208;SDS011;4639;48.862;9.188;2022-10-31T17:22:49;34.45;;;22.45;;
9208;SDS011;4639;48.862;9.188;2022-10-31T17:25:16;20.27;;;11.88;;
9208;SDS011;4639;48.862;9.188;2022-10-31T17:27:47;22.92;;;10.63;;
9208;SDS011;4639;48.862;9.188;2022-10-31T17:30:13;18.17;;;12.00;;
9208;SDS011;4639;48.862;9.188;2022-10-31T17:32:40;14.07;;;11.38;;